Time;durP1;ratioP1;P1;durP2;ratioP2;P2;SDS_P1;SDS_P2;PMS_P1;PMS_P2;Temp;Humidity;BMP_temperature;BMP_pressure;BME280_temperature;BME280_humidity;BME280_pressure;Samples;Min_cycle;Max_cycle;Signal;HPM_P1;HPM_P2
2023/10/20 00:01:44;;;;;;;5.20;3.10;;;;;;;;;;5109890;27;20439;-78
2023/10/20 00:04:09;;;;;;;7.55;3.17;;;;;;;;;;5105309;27;20087;-79
2023/10/20 00:06:35;;;;;;;13.65;6.53;;;;;;;;;;5114353;27;20019;-83
2023/10/20 00:09:00;;;;;;;4.32;3.20;;;;;;;;;;5117295;27;20015;-79
2023/10/20 00:11:25;;;;;;;6.32;4.20;;;;;;;;;;5115808;27;20111;-82
2023/10/20 00:13:54;;;;;;;7.95;4.22;;;;;;;;;;5113596;27;20023;-80
2023/10/20 00:16:28;;;;;;;6.53;3.80;;;;;;;;;;5105143;27;20015;-78
2023/10/20 00:18:54;;;;;;;3.33;3.03;;;;;;;;;;5109679;27;20019;-78
2023/10/20 00:21:19;;;;;;;3.97;2.70;;;;;;;;;;5117281;27;20027;-78
2023/10/20 00:23:45;;;;;;;6.25;2.90;;;;;;;;;;5116394;27;20446;-77
2023/10/20 00:26:10;;;;;;;5.55;3.13;;;;;;;;;;5115055;27;20070;-79
2023/10/20 00:28:36;;;;;;;3.13;2.42;;;;;;;;;;5111924;27;20023;-79
2023/10/20 00:31:01;;;;;;;4.03;2.53;;;;;;;;;;5128208;27;20049;-80
2023/10/20 00:33:27;;;;;;;3.38;2.38;;;;;;;;;;5107166;27;20034;-80
2023/10/20 00:35:53;;;;;;;3.55;2.58;;;;;;;;;;5117081;27;20126;-78
2023/10/20 00:38:18;;;;;;;2.70;2.50;;;;;;;;;;5114328;27;20047;-76
2023/10/20 00:40:50;;;;;;;3.25;2.78;;;;;;;;;;5113131;27;20465;-78
2023/10/20 00:43:16;;;;;;;4.43;3.58;;;;;;;;;;5112503;27;20092;-78
2023/10/20 00:45:43;;;;;;;5.20;3.10;;;;;;;;;;5113700;27;20035;-77
2023/10/20 00:48:09;;;;;;;3.78;3.00;;;;;;;;;;5116302;27;20030;-82
2023/10/20 00:50:35;;;;;;;4.63;2.83;;;;;;;;;;5114346;27;20035;-76
2023/10/20 00:53:00;;;;;;;4.38;3.33;;;;;;;;;;5115213;27;20031;-76
2023/10/20 00:55:26;;;;;;;5.70;3.28;;;;;;;;;;5118158;27;20032;-76
2023/10/20 00:57:53;;;;;;;3.17;2.58;;;;;;;;;;5117787;27;20380;-79
2023/10/20 01:00:20;;;;;;;3.03;2.63;;;;;;;;;;5116599;27;20043;-81
2023/10/20 01:02:46;;;;;;;3.58;2.67;;;;;;;;;;5105826;27;20326;-77
2023/10/20 01:05:14;;;;;;;3.40;2.55;;;;;;;;;;5115520;27;20032;-84
2023/10/20 01:07:40;;;;;;;2.85;2.25;;;;;;;;;;5116617;27;20042;-78
2023/10/20 01:10:06;;;;;;;4.10;2.50;;;;;;;;;;5117633;27;20400;-78
2023/10/20 01:12:32;;;;;;;4.43;2.85;;;;;;;;;;5113654;27;20342;-77
2023/10/20 01:14:59;;;;;;;4.45;2.90;;;;;;;;;;5115545;27;20102;-78
2023/10/20 01:17:25;;;;;;;5.05;2.78;;;;;;;;;;5127943;27;20020;-77
2023/10/20 01:19:51;;;;;;;4.20;2.92;;;;;;;;;;5117389;27;20358;-78
2023/10/20 01:22:17;;;;;;;3.15;2.33;;;;;;;;;;5100287;28;20027;-76
2023/10/20 01:24:42;;;;;;;4.18;2.72;;;;;;;;;;5118701;27;20100;-76
2023/10/20 01:27:08;;;;;;;9.10;2.67;;;;;;;;;;5114706;27;20038;-81
2023/10/20 01:29:33;;;;;;;4.15;2.20;;;;;;;;;;5116694;28;20126;-82
2023/10/20 01:31:59;;;;;;;4.00;2.38;;;;;;;;;;5115863;28;20462;-83
2023/10/20 01:34:24;;;;;;;4.13;3.00;;;;;;;;;;5115043;27;20025;-76
2023/10/20 01:36:50;;;;;;;4.93;2.72;;;;;;;;;;5117212;28;20031;-82
2023/10/20 01:39:16;;;;;;;4.22;2.42;;;;;;;;;;5111297;28;20034;-77
2023/10/20 01:41:41;;;;;;;4.70;2.25;;;;;;;;;;5116279;27;20110;-80
2023/10/20 01:44:08;;;;;;;2.53;2.33;;;;;;;;;;5104160;28;20425;-81
2023/10/20 01:46:34;;;;;;;2.78;2.50;;;;;;;;;;5112452;28;20412;-78
2023/10/20 01:48:59;;;;;;;6.72;2.88;;;;;;;;;;5116100;27;20056;-76
2023/10/20 01:51:24;;;;;;;4.10;2.67;;;;;;;;;;5116279;27;20023;-77
2023/10/20 01:53:50;;;;;;;2.30;2.10;;;;;;;;;;5119805;27;20035;-77
2023/10/20 01:56:15;;;;;;;5.60;2.58;;;;;;;;;;5115034;27;20304;-77
2023/10/20 01:58:41;;;;;;;7.30;2.85;;;;;;;;;;5118003;27;20019;-76
2023/10/20 02:01:08;;;;;;;4.05;2.40;;;;;;;;;;5121204;27;20337;-77
2023/10/20 02:03:33;;;;;;;5.45;2.72;;;;;;;;;;5118119;27;20139;-79
2023/10/20 02:05:58;;;;;;;7.55;2.65;;;;;;;;;;5118523;27;20106;-78
2023/10/20 02:08:24;;;;;;;6.45;2.85;;;;;;;;;;5107746;27;20054;-78
2023/10/20 02:10:49;;;;;;;4.28;2.83;;;;;;;;;;5117795;27;20118;-78
2023/10/20 02:13:15;;;;;;;10.63;3.03;;;;;;;;;;5117105;27;20339;-78
2023/10/20 02:15:52;;;;;;;5.40;2.85;;;;;;;;;;5107985;27;20032;-79
2023/10/20 02:18:18;;;;;;;6.40;2.83;;;;;;;;;;5111804;27;20024;-78
2023/10/20 02:20:43;;;;;;;4.85;2.30;;;;;;;;;;5110220;27;20478;-82
2023/10/20 02:23:09;;;;;;;3.05;2.75;;;;;;;;;;5116271;27;20023;-78
2023/10/20 02:25:34;;;;;;;4.10;2.50;;;;;;;;;;5118039;27;20038;-83
2023/10/20 02:28:00;;;;;;;5.03;2.85;;;;;;;;;;5116263;27;20023;-78
2023/10/20 02:30:25;;;;;;;5.90;3.20;;;;;;;;;;5113769;27;20122;-75
2023/10/20 02:32:51;;;;;;;4.47;3.28;;;;;;;;;;5114479;27;20046;-77
2023/10/20 02:35:16;;;;;;;4.35;2.85;;;;;;;;;;5115390;27;20058;-80
2023/10/20 02:37:41;;;;;;;7.97;3.10;;;;;;;;;;5105212;27;20027;-77
2023/10/20 02:40:07;;;;;;;5.68;3.38;;;;;;;;;;5106236;27;20451;-79
2023/10/20 02:42:33;;;;;;;8.75;3.50;;;;;;;;;;5106015;27;20452;-81
2023/10/20 02:44:58;;;;;;;8.27;3.00;;;;;;;;;;5115037;27;20037;-78
2023/10/20 02:47:24;;;;;;;6.80;3.15;;;;;;;;;;5117364;27;20093;-78
2023/10/20 02:49:53;;;;;;;9.13;3.85;;;;;;;;;;5131671;27;20122;-78
2023/10/20 02:52:19;;;;;;;6.10;3.70;;;;;;;;;;5117568;27;20066;-79
2023/10/20 02:54:44;;;;;;;7.97;2.97;;;;;;;;;;5116460;27;20419;-77
2023/10/20 02:57:09;;;;;;;22.00;5.18;;;;;;;;;;5117710;27;20722;-77
2023/10/20 02:59:35;;;;;;;10.80;3.88;;;;;;;;;;5117164;27;20531;-77
2023/10/20 03:02:00;;;;;;;4.97;3.20;;;;;;;;;;5111394;27;21186;-77
2023/10/20 03:04:25;;;;;;;5.38;3.08;;;;;;;;;;5113737;27;20750;-76
2023/10/20 03:06:51;;;;;;;4.47;2.80;;;;;;;;;;5107403;27;20311;-75
2023/10/20 03:09:16;;;;;;;6.47;3.03;;;;;;;;;;5114763;27;20036;-76
2023/10/20 03:11:43;;;;;;;4.90;2.83;;;;;;;;;;5115939;27;20505;-81
2023/10/20 03:14:08;;;;;;;7.57;3.08;;;;;;;;;;5115953;27;20030;-79
2023/10/20 03:16:38;;;;;;;6.63;3.60;;;;;;;;;;5114167;27;20023;-79
2023/10/20 03:19:04;;;;;;;9.00;3.92;;;;;;;;;;5112752;27;20355;-78
2023/10/20 03:21:29;;;;;;;4.80;3.30;;;;;;;;;;5109023;27;20498;-77
2023/10/20 03:23:54;;;;;;;4.88;2.92;;;;;;;;;;5117666;27;20023;-77
2023/10/20 03:26:20;;;;;;;5.30;2.83;;;;;;;;;;5117708;27;20023;-75
2023/10/20 03:28:45;;;;;;;7.97;3.05;;;;;;;;;;5116340;27;20032;-79
2023/10/20 03:31:10;;;;;;;13.07;3.17;;;;;;;;;;5116797;27;20037;-76
2023/10/20 03:33:36;;;;;;;5.75;2.88;;;;;;;;;;5116876;27;20111;-80
2023/10/20 03:36:02;;;;;;;5.45;2.85;;;;;;;;;;5116045;27;20350;-76
2023/10/20 03:38:28;;;;;;;4.43;2.83;;;;;;;;;;5114974;27;20020;-82
2023/10/20 03:40:53;;;;;;;4.47;2.95;;;;;;;;;;5108662;27;20502;-82
2023/10/20 03:43:19;;;;;;;8.38;3.22;;;;;;;;;;5106899;27;20305;-79
2023/10/20 03:45:56;;;;;;;18.00;8.48;;;;;;;;;;5104103;27;20096;-77
2023/10/20 03:48:23;;;;;;;5.40;3.47;;;;;;;;;;5106414;27;20015;-76
2023/10/20 03:50:51;;;;;;;10.15;5.57;;;;;;;;;;5117057;27;20068;-78
2023/10/20 03:53:26;;;;;;;5.68;2.95;;;;;;;;;;5117975;27;20034;-76
2023/10/20 03:56:03;;;;;;;5.78;2.70;;;;;;;;;;5112086;27;20304;-78
2023/10/20 03:58:29;;;;;;;6.63;2.88;;;;;;;;;;5116186;27;20034;-79
2023/10/20 04:00:55;;;;;;;4.47;2.72;;;;;;;;;;5114536;27;20604;-83
2023/10/20 04:03:20;;;;;;;8.50;2.70;;;;;;;;;;5099339;27;20118;-82
2023/10/20 04:05:45;;;;;;;8.13;3.13;;;;;;;;;;5101319;27;20098;-76
2023/10/20 04:08:11;;;;;;;3.50;2.33;;;;;;;;;;5102863;27;20458;-77
2023/10/20 04:10:37;;;;;;;7.93;2.97;;;;;;;;;;5100535;27;20058;-77
2023/10/20 04:13:03;;;;;;;5.57;2.53;;;;;;;;;;5112416;27;20169;-80
2023/10/20 04:15:32;;;;;;;9.93;2.92;;;;;;;;;;5113872;27;20122;-75
2023/10/20 04:17:57;;;;;;;7.60;2.60;;;;;;;;;;5114774;27;20395;-76
2023/10/20 04:20:26;;;;;;;6.05;3.05;;;;;;;;;;5114557;27;20038;-75
2023/10/20 04:22:51;;;;;;;12.30;3.20;;;;;;;;;;5111991;27;20061;-80
2023/10/20 04:25:17;;;;;;;6.75;2.45;;;;;;;;;;5114368;27;20077;-74
2023/10/20 04:27:49;;;;;;;6.10;2.40;;;;;;;;;;5112760;27;20023;-77
2023/10/20 04:54:51;;;;;;;7.78;4.60;;;;;;;;;;5104556;27;20652;-74
2023/10/20 05:00:31;;;;;;;6.25;3.40;;;;;;;;;;5101561;27;19951;-76
2023/10/20 05:02:39;;;;;;;8.07;5.20;;;;;;;;;;5099476;27;20359;-75
2023/10/20 05:05:15;;;;;;;6.53;2.90;;;;;;;;;;5101455;28;20034;-76
2023/10/20 05:07:47;;;;;;;6.60;3.75;;;;;;;;;;5111261;27;20034;-78
2023/10/20 05:10:13;;;;;;;5.75;4.05;;;;;;;;;;5115879;27;20064;-75
2023/10/20 05:12:38;;;;;;;9.65;4.07;;;;;;;;;;5112110;27;20070;-75
2023/10/20 05:15:05;;;;;;;7.85;3.90;;;;;;;;;;5116883;27;20038;-75
2023/10/20 05:17:32;;;;;;;7.43;5.05;;;;;;;;;;5112793;27;20120;-79
2023/10/20 05:19:57;;;;;;;10.35;4.75;;;;;;;;;;5108126;28;20104;-73
2023/10/20 05:22:23;;;;;;;9.43;4.03;;;;;;;;;;5092723;28;20132;-73
2023/10/20 05:24:48;;;;;;;9.95;4.53;;;;;;;;;;5093578;27;20024;-73
2023/10/20 05:27:13;;;;;;;9.40;4.95;;;;;;;;;;5098122;27;20379;-75
2023/10/20 05:29:39;;;;;;;7.75;3.28;;;;;;;;;;5097868;27;20346;-74
2023/10/20 05:32:06;;;;;;;6.20;3.55;;;;;;;;;;5111623;27;20357;-76
2023/10/20 05:34:31;;;;;;;8.27;3.22;;;;;;;;;;5099689;27;20031;-76
2023/10/20 05:36:57;;;;;;;5.43;3.25;;;;;;;;;;5113863;27;20081;-75
2023/10/20 05:39:22;;;;;;;7.22;4.18;;;;;;;;;;5119161;27;20034;-75
2023/10/20 05:41:48;;;;;;;8.15;3.20;;;;;;;;;;5118678;27;20034;-75
2023/10/20 05:44:14;;;;;;;7.03;2.83;;;;;;;;;;5120491;27;20469;-76
2023/10/20 05:46:40;;;;;;;7.93;3.30;;;;;;;;;;5120207;27;20342;-74
2023/10/20 05:49:08;;;;;;;6.95;5.15;;;;;;;;;;5116295;27;20031;-73
2023/10/20 05:51:33;;;;;;;7.90;3.70;;;;;;;;;;5119862;27;20023;-73
2023/10/20 05:53:59;;;;;;;14.07;8.77;;;;;;;;;;5119096;27;20354;-75
2023/10/20 05:56:24;;;;;;;8.93;5.03;;;;;;;;;;5118028;27;20023;-76
2023/10/20 05:58:50;;;;;;;7.10;4.65;;;;;;;;;;5118636;27;20533;-74
2023/10/20 06:01:18;;;;;;;5.82;3.20;;;;;;;;;;5115548;27;20087;-74
2023/10/20 06:03:43;;;;;;;9.40;3.88;;;;;;;;;;5119871;27;20034;-73
2023/10/20 06:06:10;;;;;;;9.02;3.60;;;;;;;;;;5116850;27;20019;-74
2023/10/20 06:08:35;;;;;;;7.60;3.30;;;;;;;;;;5117864;27;20098;-77
2023/10/20 06:11:03;;;;;;;6.75;3.53;;;;;;;;;;5116993;27;20419;-76
2023/10/20 06:13:32;;;;;;;8.70;3.60;;;;;;;;;;5115337;27;20026;-73
2023/10/20 06:16:04;;;;;;;5.70;2.97;;;;;;;;;;5119246;27;20115;-74
2023/10/20 06:18:29;;;;;;;4.20;2.90;;;;;;;;;;5116967;27;20118;-75
2023/10/20 06:20:54;;;;;;;5.88;3.10;;;;;;;;;;5117142;27;20477;-73
2023/10/20 06:23:20;;;;;;;6.35;3.00;;;;;;;;;;5118192;27;20032;-73
2023/10/20 06:25:46;;;;;;;5.22;2.80;;;;;;;;;;5118537;27;20466;-75
2023/10/20 06:28:12;;;;;;;7.55;4.07;;;;;;;;;;5117350;27;20024;-77
2023/10/20 06:30:43;;;;;;;11.63;3.60;;;;;;;;;;5115635;27;20054;-74
2023/10/20 06:35:44;;;;;;;10.43;6.43;;;;;;;;;;5117751;27;20055;-73
2023/10/20 06:38:11;;;;;;;12.23;5.38;;;;;;;;;;5118388;27;20103;-75
2023/10/20 06:40:38;;;;;;;11.88;4.85;;;;;;;;;;5116827;27;20128;-73
2023/10/20 06:43:04;;;;;;;5.55;3.50;;;;;;;;;;5119201;27;20434;-75
2023/10/20 06:45:30;;;;;;;8.20;3.60;;;;;;;;;;5118809;27;20042;-73
2023/10/20 06:47:57;;;;;;;7.60;2.75;;;;;;;;;;5116124;27;21135;-73
2023/10/20 06:50:22;;;;;;;12.32;5.80;;;;;;;;;;5118191;27;20038;-73
2023/10/20 06:52:48;;;;;;;13.30;7.03;;;;;;;;;;5118026;27;20114;-73
2023/10/20 06:55:13;;;;;;;8.65;6.65;;;;;;;;;;5118173;27;20450;-74
2023/10/20 06:57:38;;;;;;;8.93;3.72;;;;;;;;;;5116046;27;20315;-75
2023/10/20 07:00:06;;;;;;;6.40;3.47;;;;;;;;;;5118120;27;20035;-75
2023/10/20 07:02:31;;;;;;;7.13;4.32;;;;;;;;;;5117033;27;20027;-75
2023/10/20 07:04:57;;;;;;;10.25;5.28;;;;;;;;;;5117178;27;20024;-76
2023/10/20 07:07:23;;;;;;;13.57;9.02;;;;;;;;;;5117838;27;20368;-74
2023/10/20 07:09:48;;;;;;;7.72;4.18;;;;;;;;;;5118647;27;20098;-76
2023/10/20 07:12:15;;;;;;;9.65;4.90;;;;;;;;;;5117668;27;20023;-76
2023/10/20 07:14:42;;;;;;;14.57;7.38;;;;;;;;;;5117652;27;20036;-73
2023/10/20 07:17:08;;;;;;;18.20;9.90;;;;;;;;;;5118205;27;20026;-73
2023/10/20 07:19:33;;;;;;;15.30;9.50;;;;;;;;;;5118796;27;20024;-76
2023/10/20 07:22:05;;;;;;;18.17;12.32;;;;;;;;;;5117208;27;20338;-74
2023/10/20 07:24:31;;;;;;;17.77;11.50;;;;;;;;;;5119707;27;20468;-75
2023/10/20 07:26:56;;;;;;;18.50;11.07;;;;;;;;;;5118759;27;20035;-75
2023/10/20 07:29:21;;;;;;;18.13;9.93;;;;;;;;;;5117496;27;20089;-75
2023/10/20 07:31:47;;;;;;;15.70;8.13;;;;;;;;;;5117095;27;20043;-73
2023/10/20 07:34:15;;;;;;;14.95;8.43;;;;;;;;;;5118514;27;20031;-73
2023/10/20 07:36:42;;;;;;;11.80;7.13;;;;;;;;;;5116293;27;20099;-73
2023/10/20 07:39:08;;;;;;;19.23;7.45;;;;;;;;;;5117361;27;20088;-74
2023/10/20 07:41:35;;;;;;;16.08;8.90;;;;;;;;;;5117376;27;20031;-73
2023/10/20 07:44:01;;;;;;;21.58;11.57;;;;;;;;;;5117977;27;20023;-77
2023/10/20 07:46:26;;;;;;;15.75;9.60;;;;;;;;;;5115475;27;20019;-78
2023/10/20 07:48:51;;;;;;;13.60;8.13;;;;;;;;;;5115380;27;20042;-75
2023/10/20 07:51:17;;;;;;;18.60;11.10;;;;;;;;;;5117211;27;20035;-73
2023/10/20 07:53:42;;;;;;;13.45;7.78;;;;;;;;;;5116989;27;20118;-73
2023/10/20 07:56:07;;;;;;;9.77;5.97;;;;;;;;;;5117307;27;20438;-73
2023/10/20 07:58:33;;;;;;;6.90;4.07;;;;;;;;;;5117840;27;20019;-73
2023/10/20 08:01:00;;;;;;;8.77;5.30;;;;;;;;;;5117041;27;20046;-73
2023/10/20 08:03:25;;;;;;;12.75;4.05;;;;;;;;;;5116651;27;20069;-75
2023/10/20 08:05:51;;;;;;;12.38;4.18;;;;;;;;;;5117816;27;20059;-75
2023/10/20 08:08:17;;;;;;;11.80;3.80;;;;;;;;;;5118987;27;20019;-75
2023/10/20 08:10:42;;;;;;;12.25;4.32;;;;;;;;;;5117332;27;20458;-74
2023/10/20 08:13:09;;;;;;;12.50;7.00;;;;;;;;;;5116367;27;20177;-75
2023/10/20 08:15:38;;;;;;;23.60;14.65;;;;;;;;;;5117667;27;20396;-74
2023/10/20 08:18:03;;;;;;;;;;;;;;;;;;5117684;27;20034;-74
2023/10/20 08:20:29;;;;;;;9.27;5.60;;;;;;;;;;5115624;27;19903;-73
2023/10/20 08:22:54;;;;;;;30.42;23.35;;;;;;;;;;5114809;27;20370;-74
2023/10/20 08:25:20;;;;;;;14.13;7.85;;;;;;;;;;5116362;27;20024;-75
2023/10/20 08:27:47;;;;;;;12.85;5.35;;;;;;;;;;5116103;27;20019;-73
2023/10/20 08:30:13;;;;;;;11.52;4.30;;;;;;;;;;5115981;27;20019;-74
2023/10/20 08:32:38;;;;;;;23.15;10.63;;;;;;;;;;5118471;27;20039;-73
2023/10/20 08:35:06;;;;;;;8.63;4.47;;;;;;;;;;5114390;27;20044;-74
2023/10/20 08:37:32;;;;;;;12.13;4.88;;;;;;;;;;5115644;27;20451;-73
2023/10/20 08:39:57;;;;;;;15.95;5.28;;;;;;;;;;5114307;27;20019;-73
2023/10/20 08:42:23;;;;;;;12.45;4.25;;;;;;;;;;5115665;27;20027;-73
2023/10/20 08:44:49;;;;;;;7.20;3.10;;;;;;;;;;5115410;27;20045;-74
2023/10/20 08:47:15;;;;;;;7.25;3.42;;;;;;;;;;5115267;27;20077;-74
2023/10/20 08:49:41;;;;;;;17.95;7.47;;;;;;;;;;5114534;27;20077;-74
2023/10/20 08:52:10;;;;;;;14.90;3.92;;;;;;;;;;5115513;27;20040;-76
2023/10/20 08:54:36;;;;;;;10.63;3.83;;;;;;;;;;5118285;27;20031;-75
2023/10/20 08:57:01;;;;;;;10.20;3.80;;;;;;;;;;5116131;27;20031;-75
2023/10/20 08:59:27;;;;;;;11.35;4.05;;;;;;;;;;5114382;27;20027;-74
2023/10/20 09:01:52;;;;;;;15.35;4.95;;;;;;;;;;5117611;27;20054;-72
2023/10/20 09:04:22;;;;;;;8.68;4.10;;;;;;;;;;5114421;27;20156;-74
2023/10/20 09:06:47;;;;;;;9.32;3.65;;;;;;;;;;5113915;27;20027;-75
2023/10/20 09:09:14;;;;;;;10.48;3.90;;;;;;;;;;5118421;27;20054;-75
2023/10/20 09:11:42;;;;;;;10.25;3.95;;;;;;;;;;5113420;27;20030;-75
2023/10/20 09:14:08;;;;;;;14.18;4.03;;;;;;;;;;5113711;28;20030;-74
2023/10/20 09:16:33;;;;;;;12.32;4.32;;;;;;;;;;5116150;27;20346;-73
2023/10/20 09:18:59;;;;;;;14.00;4.22;;;;;;;;;;5113957;27;20023;-72
2023/10/20 09:21:25;;;;;;;26.80;14.30;;;;;;;;;;5116348;27;20187;-73
2023/10/20 09:24:04;;;;;;;17.85;9.63;;;;;;;;;;5114394;27;20031;-73
2023/10/20 09:26:31;;;;;;;12.80;4.28;;;;;;;;;;5117228;28;20040;-76
2023/10/20 09:28:57;;;;;;;8.88;3.38;;;;;;;;;;5114951;28;20071;-76
2023/10/20 09:31:23;;;;;;;9.73;4.00;;;;;;;;;;5115233;27;20127;-73
2023/10/20 09:33:48;;;;;;;14.35;4.30;;;;;;;;;;5115076;28;20019;-75
2023/10/20 09:36:14;;;;;;;9.38;3.50;;;;;;;;;;5114540;27;20046;-74
2023/10/20 09:38:40;;;;;;;12.68;3.40;;;;;;;;;;5114452;27;20027;-72
2023/10/20 09:41:13;;;;;;;10.02;2.83;;;;;;;;;;5113720;28;20226;-73
2023/10/20 09:43:48;;;;;;;22.80;3.95;;;;;;;;;;5112568;28;20358;-73
2023/10/20 09:46:41;;;;;;;10.55;3.63;;;;;;;;;;5117557;27;20038;-73
2023/10/20 09:49:12;;;;;;;8.77;3.13;;;;;;;;;;5073901;28;20486;-73
2023/10/20 09:51:38;;;;;;;7.25;3.25;;;;;;;;;;5074211;28;20211;-75
2023/10/20 09:54:03;;;;;;;8.15;3.83;;;;;;;;;;5074002;28;20130;-77
2023/10/20 09:56:29;;;;;;;10.35;3.17;;;;;;;;;;5072583;28;20072;-74
2023/10/20 09:58:58;;;;;;;17.50;3.55;;;;;;;;;;5069042;28;20034;-74
2023/10/20 10:01:24;;;;;;;12.30;3.40;;;;;;;;;;5072507;28;20034;-74
2023/10/20 10:04:00;;;;;;;14.30;3.83;;;;;;;;;;5073736;28;20032;-76
2023/10/20 10:06:26;;;;;;;7.70;3.30;;;;;;;;;;5074593;28;20050;-73
2023/10/20 10:08:52;;;;;;;10.85;3.50;;;;;;;;;;5072784;28;20032;-73
2023/10/20 10:11:26;;;;;;;11.57;3.22;;;;;;;;;;5074700;28;20123;-72
2023/10/20 10:14:01;;;;;;;9.32;3.60;;;;;;;;;;5075455;28;20040;-76
2023/10/20 10:16:27;;;;;;;7.97;3.38;;;;;;;;;;5078451;28;21314;-73
2023/10/20 10:18:54;;;;;;;12.65;4.32;;;;;;;;;;5059206;28;20118;-77
2023/10/20 10:21:28;;;;;;;8.43;3.20;;;;;;;;;;5078115;28;20044;-73
2023/10/20 10:24:13;;;;;;;11.23;3.13;;;;;;;;;;5061021;28;20024;-76
2023/10/20 10:26:45;;;;;;;11.15;2.97;;;;;;;;;;5111294;27;20031;-74
2023/10/20 10:29:10;;;;;;;11.25;3.67;;;;;;;;;;5118282;27;20111;-75
2023/10/20 10:31:36;;;;;;;9.10;3.22;;;;;;;;;;5116972;27;20366;-76
2023/10/20 10:34:04;;;;;;;10.23;3.58;;;;;;;;;;5119104;27;20019;-73
2023/10/20 10:36:30;;;;;;;14.10;3.50;;;;;;;;;;5118701;27;20066;-74
2023/10/20 10:38:57;;;;;;;11.70;3.65;;;;;;;;;;5120683;27;20438;-74
2023/10/20 10:41:23;;;;;;;10.60;3.95;;;;;;;;;;5119475;27;20035;-77
2023/10/20 10:43:52;;;;;;;12.18;3.50;;;;;;;;;;5118035;27;20113;-74
2023/10/20 10:46:17;;;;;;;;;;;;;;;;;;5118462;27;20034;-74
2023/10/20 10:48:45;;;;;;;14.27;3.87;;;;;;;;;;5119972;27;20249;-73
2023/10/20 10:51:10;;;;;;;12.23;3.22;;;;;;;;;;5117529;27;20039;-75
2023/10/20 10:53:37;;;;;;;9.50;3.55;;;;;;;;;;5117865;27;20035;-73
2023/10/20 10:56:04;;;;;;;8.18;2.92;;;;;;;;;;5119555;27;20090;-75
2023/10/20 10:58:30;;;;;;;11.75;3.65;;;;;;;;;;5118573;27;20037;-76
2023/10/20 11:00:56;;;;;;;13.38;3.08;;;;;;;;;;5114871;27;20142;-74
2023/10/20 11:03:21;;;;;;;8.10;3.17;;;;;;;;;;5117696;27;20023;-74
2023/10/20 11:05:47;;;;;;;11.20;3.63;;;;;;;;;;5118777;27;20031;-74
2023/10/20 11:08:12;;;;;;;15.75;3.33;;;;;;;;;;5120331;27;20342;-74
2023/10/20 11:10:42;;;;;;;12.07;3.28;;;;;;;;;;5116798;27;20035;-74
2023/10/20 11:13:08;;;;;;;13.95;3.60;;;;;;;;;;5116862;27;20038;-74
2023/10/20 11:15:35;;;;;;;14.80;3.60;;;;;;;;;;5115179;27;20045;-78
2023/10/20 11:18:01;;;;;;;10.75;3.05;;;;;;;;;;5116151;27;20084;-75
2023/10/20 11:20:27;;;;;;;10.40;3.08;;;;;;;;;;5116925;27;20031;-74
2023/10/20 11:22:56;;;;;;;14.82;3.45;;;;;;;;;;5118555;27;20027;-77
2023/10/20 11:25:21;;;;;;;;;;;;;;;;;;5115747;27;20019;-77
2023/10/20 11:27:54;;;;;;;11.03;3.87;;;;;;;;;;5119091;27;19968;-74
2023/10/20 11:30:28;;;;;;;9.57;3.47;;;;;;;;;;5112283;27;20022;-75
2023/10/20 11:32:54;;;;;;;11.70;3.97;;;;;;;;;;5109704;27;20023;-75
2023/10/20 11:35:21;;;;;;;13.57;4.03;;;;;;;;;;5117428;27;20058;-73
2023/10/20 11:37:48;;;;;;;12.77;3.35;;;;;;;;;;5117253;27;20059;-74
2023/10/20 11:40:14;;;;;;;12.95;4.30;;;;;;;;;;5115811;27;20035;-73
2023/10/20 11:42:39;;;;;;;14.85;3.83;;;;;;;;;;5117463;27;20296;-75
2023/10/20 11:45:05;;;;;;;10.98;3.30;;;;;;;;;;5117540;27;20019;-74
2023/10/20 11:47:31;;;;;;;13.23;4.03;;;;;;;;;;5118661;27;20422;-75
2023/10/20 11:49:57;;;;;;;11.85;3.83;;;;;;;;;;5115843;27;20027;-74
2023/10/20 11:52:24;;;;;;;15.55;3.97;;;;;;;;;;5115147;27;20019;-74
2023/10/20 11:54:49;;;;;;;7.90;2.97;;;;;;;;;;5117255;27;20023;-77
2023/10/20 11:57:15;;;;;;;9.63;3.15;;;;;;;;;;5115561;27;20038;-73
2023/10/20 11:59:40;;;;;;;11.27;3.65;;;;;;;;;;5115748;27;20387;-73
2023/10/20 12:02:06;;;;;;;12.73;3.75;;;;;;;;;;5118214;27;20019;-74
2023/10/20 12:04:31;;;;;;;13.13;4.93;;;;;;;;;;5115517;27;20027;-74
2023/10/20 12:06:58;;;;;;;10.77;5.15;;;;;;;;;;5118674;27;20125;-74
2023/10/20 12:09:23;;;;;;;10.65;3.63;;;;;;;;;;5118802;27;20076;-75
2023/10/20 12:11:49;;;;;;;19.38;4.15;;;;;;;;;;5117562;27;20039;-74
2023/10/20 12:14:15;;;;;;;20.42;4.35;;;;;;;;;;5117842;27;20514;-72
2023/10/20 12:16:40;;;;;;;18.50;4.05;;;;;;;;;;5116465;27;20036;-76
2023/10/20 12:19:06;;;;;;;9.85;3.08;;;;;;;;;;5113764;27;20071;-73
2023/10/20 12:21:32;;;;;;;9.60;3.42;;;;;;;;;;5116709;27;20027;-76
2023/10/20 12:23:57;;;;;;;12.65;3.25;;;;;;;;;;5119639;27;20035;-74
2023/10/20 12:26:23;;;;;;;13.63;4.18;;;;;;;;;;5117276;27;20027;-74
2023/10/20 12:28:50;;;;;;;11.93;3.30;;;;;;;;;;5115386;27;20019;-75
2023/10/20 12:31:15;;;;;;;12.93;3.65;;;;;;;;;;5116305;27;21411;-74
2023/10/20 12:33:44;;;;;;;11.23;3.50;;;;;;;;;;5118265;27;20032;-75
2023/10/20 12:36:13;;;;;;;16.30;4.20;;;;;;;;;;5114079;27;20127;-74
2023/10/20 12:38:38;;;;;;;13.60;3.65;;;;;;;;;;5119083;27;20030;-77
2023/10/20 12:41:03;;;;;;;10.48;3.30;;;;;;;;;;5119242;27;20046;-75
2023/10/20 12:43:30;;;;;;;15.27;4.18;;;;;;;;;;5115568;27;20059;-74
2023/10/20 12:45:55;;;;;;;11.18;3.28;;;;;;;;;;5114226;27;20072;-73
2023/10/20 12:48:21;;;;;;;10.05;3.20;;;;;;;;;;5115673;27;20015;-74
2023/10/20 12:50:46;;;;;;;10.27;3.72;;;;;;;;;;5114465;27;20108;-76
2023/10/20 12:53:12;;;;;;;14.38;3.92;;;;;;;;;;5116440;27;20026;-75
2023/10/20 12:55:38;;;;;;;12.75;4.03;;;;;;;;;;5113101;27;20113;-77
2023/10/20 12:58:03;;;;;;;13.07;3.45;;;;;;;;;;5115185;27;20134;-75
2023/10/20 13:00:29;;;;;;;13.00;4.10;;;;;;;;;;5105399;27;20062;-75
2023/10/20 13:02:54;;;;;;;13.68;4.25;;;;;;;;;;5101306;27;20027;-75
2023/10/20 13:05:21;;;;;;;14.30;4.22;;;;;;;;;;5100572;27;20027;-75
2023/10/20 13:07:46;;;;;;;15.40;4.90;;;;;;;;;;5113615;27;20031;-74
2023/10/20 13:10:12;;;;;;;13.68;4.00;;;;;;;;;;5115387;27;20081;-77
2023/10/20 13:12:37;;;;;;;15.57;3.75;;;;;;;;;;5113910;27;20495;-76
2023/10/20 13:15:04;;;;;;;15.65;4.28;;;;;;;;;;5114655;27;20061;-76
2023/10/20 13:17:30;;;;;;;16.00;4.70;;;;;;;;;;5108840;27;20055;-75
2023/10/20 13:19:56;;;;;;;15.35;4.00;;;;;;;;;;5103832;27;20115;-74
2023/10/20 13:22:24;;;;;;;14.95;4.50;;;;;;;;;;5102687;28;20394;-73
2023/10/20 13:24:50;;;;;;;10.18;4.25;;;;;;;;;;5115387;28;20119;-75
2023/10/20 13:27:15;;;;;;;15.38;3.67;;;;;;;;;;5112469;27;20126;-74
2023/10/20 13:29:41;;;;;;;13.45;4.20;;;;;;;;;;5103734;27;20031;-72
2023/10/20 13:32:06;;;;;;;12.70;3.85;;;;;;;;;;5095310;27;20081;-72
2023/10/20 13:34:33;;;;;;;13.95;4.68;;;;;;;;;;5101772;27;20475;-74
2023/10/20 13:36:59;;;;;;;20.67;4.18;;;;;;;;;;5102439;27;20579;-74
2023/10/20 13:39:24;;;;;;;10.88;3.88;;;;;;;;;;5100473;28;20120;-73
2023/10/20 13:41:49;;;;;;;11.52;3.63;;;;;;;;;;5102751;27;20020;-75
2023/10/20 13:44:15;;;;;;;14.15;4.05;;;;;;;;;;5100143;28;20027;-73
2023/10/20 13:46:40;;;;;;;20.88;4.25;;;;;;;;;;5103422;27;20031;-73
2023/10/20 13:49:08;;;;;;;15.60;4.13;;;;;;;;;;5104288;27;20027;-74
2023/10/20 13:51:33;;;;;;;13.73;4.10;;;;;;;;;;5102551;27;20717;-74
2023/10/20 13:53:59;;;;;;;17.52;4.30;;;;;;;;;;5113714;27;20030;-76
2023/10/20 13:56:26;;;;;;;13.55;4.47;;;;;;;;;;5100567;27;20185;-75
2023/10/20 13:58:51;;;;;;;15.05;4.70;;;;;;;;;;5102196;27;20133;-74
2023/10/20 14:01:17;;;;;;;14.93;4.80;;;;;;;;;;5105615;27;20348;-77
2023/10/20 14:03:44;;;;;;;17.15;4.93;;;;;;;;;;5095382;27;20050;-78
2023/10/20 14:06:10;;;;;;;13.38;4.22;;;;;;;;;;5095358;27;20045;-75
2023/10/20 14:08:37;;;;;;;12.77;4.40;;;;;;;;;;5101210;27;20087;-75
2023/10/20 14:11:04;;;;;;;22.08;10.93;;;;;;;;;;5103146;27;20035;-77
2023/10/20 14:13:30;;;;;;;15.55;5.13;;;;;;;;;;5104373;27;20455;-75
2023/10/20 14:15:55;;;;;;;17.77;5.07;;;;;;;;;;5104748;27;20034;-75
2023/10/20 14:18:21;;;;;;;12.88;4.70;;;;;;;;;;5094898;27;20107;-75
2023/10/20 14:20:47;;;;;;;14.82;4.45;;;;;;;;;;5092766;27;20046;-75
2023/10/20 14:23:12;;;;;;;13.23;4.45;;;;;;;;;;5090167;27;20096;-75
2023/10/20 14:25:38;;;;;;;16.45;5.45;;;;;;;;;;5093305;27;20066;-76
2023/10/20 14:28:05;;;;;;;16.98;4.05;;;;;;;;;;5089717;27;20039;-75
2023/10/20 14:30:30;;;;;;;16.45;5.25;;;;;;;;;;5104757;27;20046;-78
2023/10/20 14:32:56;;;;;;;18.85;4.68;;;;;;;;;;5105571;27;20028;-76
2023/10/20 14:35:22;;;;;;;13.45;4.47;;;;;;;;;;5106851;27;20063;-77
2023/10/20 14:37:47;;;;;;;17.20;5.50;;;;;;;;;;5114124;27;20114;-76
2023/10/20 14:40:13;;;;;;;14.13;4.18;;;;;;;;;;5102674;27;20105;-76
2023/10/20 14:42:38;;;;;;;11.98;3.65;;;;;;;;;;5105440;27;20456;-77
2023/10/20 14:45:03;;;;;;;13.27;3.90;;;;;;;;;;5111402;27;20019;-77
2023/10/20 14:47:29;;;;;;;15.55;5.25;;;;;;;;;;5099944;27;20032;-74
2023/10/20 14:49:54;;;;;;;19.75;6.25;;;;;;;;;;5100247;27;20031;-74
2023/10/20 14:52:20;;;;;;;17.08;4.75;;;;;;;;;;5110161;27;20031;-76
2023/10/20 14:54:45;;;;;;;16.60;6.28;;;;;;;;;;5112910;27;20016;-75
2023/10/20 14:57:11;;;;;;;19.65;10.73;;;;;;;;;;5104277;27;20053;-74
2023/10/20 14:59:36;;;;;;;18.90;6.53;;;;;;;;;;5113978;27;20034;-76
2023/10/20 15:02:02;;;;;;;22.95;6.22;;;;;;;;;;5118920;27;20476;-79